Le Roy, Michigan
Current Conditions -  °F | °C
As of 5:55 AM on Sunday 23 Nov 2014 (Local Time) from KCAD Reporting Station
Light Rain Light Rain  
Wind Chill: 37°   Ceiling: 100
Heat Index: 42°   Visibility: 0.5mi
Dew Point: 42°   Wind: 9mph
Humidity: 100%   Direction: 200°SSW
Pressure: 29.76"   Gusts: NA
Location:  44.0236°N, 85.4348°W
Report Text: KCAD 231055Z AUTO 20008KT 1/2SM -RA OVC001 05/05 A2976 RMK AO2 T00570057
Loading
Personal Weather Stations






























Interactive Weather Map New forecast layout! Learn more

10-Day Weather Forecast

Advertisements
Track Severe Weather on mobile